Aeroporto :
LOGIN :

Iscrizione | Disclaimer

   EN    FR    IT 

 










Sommario :    VFR   VFR Marginale   IFR   IFR Intensivo   IFR Molto Intensivo
Visibilità : 
Base nubi : 
>= 8 km
>= 3000ft
5 / 8 km
1000 / 3000 ft
1500m / 5 km
500 / 1000 ft
800 / 1500m
200 / 500 ft
< 800m
< 200 ft
Simboli :   Temporali  Nebbia  Neve Forte  Precipitazioni Forti  Vento > 20 kt
SIGMETs :   Varie  Temporali  Ghiacco  Turbolenza  Onda orograficha  Ceneri Vulcaniche







- Altitudine del aeroporto : 1300 ft
- Codice IATA : LIG
- Carte del aeroporto


LFBL - Limoges

ULTIMO METAR :
  • 221700Z AUTO 02012KT 330V040 CAVOK 15/07 Q1028 BECMG BKN013

METARs OBSOLETI :
  • 221630Z AUTO 02010KT 340V040 CAVOK 16/07 Q1027 BECMG BKN013
  • 221600Z AUTO 03012KT CAVOK 17/07 Q1027 NOSIG
  • 221530Z AUTO 03014KT CAVOK 17/07 Q1027 NOSIG
  • 221500Z AUTO 01013KT 340V040 CAVOK 17/06 Q1027 NOSIG
  • 221430Z AUTO 02014KT 340V050 CAVOK 17/04 Q1027 NOSIG

TAF TAF LFBL
Valido dal 22 a 12 ore il 23 a 12 ore UTC


221100Z 2212/2312 02010KT CAVOK
BECMG 2218/2220 BKN013
TEMPO 2220/2224 4000 BR BKN006
BECMG 2306/2308 SCT014
BECMG 2308/2310 CAVOK
ATIS : +33 5 55 48 40 37
Nessun NOTAM noto per questo aeroporto.



MetMap, La meteo Aeronautica in un colpo d'occhio ! - Copyright ORBIFLY Dicembre 2007 - Disclaimer

ORBIFLY MET'MAP TEAM :

Programmazione e sviluppo : Alexandra Zaïnal
Concezione e sviluppo : Baudouin d'Aumeries
Co-Programmazione e sviluppo : Marc-Olivier Méhu
Supporto tecnico e logistico : Manuel Goepfert
Aiuto per la traduzione : Arnaldo La Scala

Contatto : metmap@orbifly.com




FONTI E CREDITI :

   NOAA